createdAt,value
2022-11-17T00:00:02.619Z,97.75
2022-11-17T00:05:03.168Z,97.56
2022-11-17T00:10:03.040Z,97.56
2022-11-17T00:15:03.194Z,97.92
2022-11-17T00:20:02.412Z,98.15
2022-11-17T00:25:03.138Z,97.93
2022-11-17T00:30:02.877Z,98.01
2022-11-17T00:35:02.375Z,97.93
2022-11-17T00:40:03.236Z,98.06
2022-11-17T00:45:03.249Z,97.71
2022-11-17T00:50:02.594Z,97.48
2022-11-17T00:55:05.263Z,97.37
2022-11-17T01:00:02.957Z,97.05
2022-11-17T01:05:02.823Z,96.76
2022-11-17T01:10:02.874Z,96.13
2022-11-17T01:15:03.402Z,96.12
2022-11-17T01:20:02.438Z,96.96
2022-11-17T01:25:03.253Z,97.41
2022-11-17T01:30:13.732Z,97.36
2022-11-17T01:35:02.871Z,97.37
2022-11-17T01:40:02.817Z,96.89
2022-11-17T01:45:02.408Z,97.26
2022-11-17T01:50:03.074Z,97.26
2022-11-17T01:55:04.190Z,97.17
2022-11-17T02:00:03.030Z,96.65
2022-11-17T02:05:02.290Z,96.96
2022-11-17T02:10:03.080Z,96.8
2022-11-17T02:15:03.113Z,97.23
2022-11-17T02:20:03.196Z,97.02
2022-11-17T02:25:02.663Z,97.34
2022-11-17T02:30:02.563Z,97.16
2022-11-17T02:35:03.009Z,96.8
2022-11-17T02:40:03.381Z,96.1
2022-11-17T02:45:02.849Z,96.12
2022-11-17T02:50:02.668Z,96.23
2022-11-17T02:55:03.727Z,96.21
2022-11-17T03:00:03.707Z,96.43
2022-11-17T03:05:02.903Z,96.47
2022-11-17T03:10:02.663Z,96.02
2022-11-17T03:15:02.424Z,95.99
2022-11-17T03:20:03.154Z,95.96
2022-11-17T03:25:03.351Z,96.3
2022-11-17T03:30:02.836Z,96
2022-11-17T03:35:02.530Z,96.69
2022-11-17T03:40:03.187Z,96.88
2022-11-17T03:45:03.078Z,96.65
2022-11-17T03:50:03.138Z,96.53
2022-11-17T03:55:03.825Z,96.61
2022-11-17T04:00:02.882Z,96.69
2022-11-17T04:05:02.545Z,96.59
2022-11-17T04:10:02.268Z,96.76
2022-11-17T04:15:03.080Z,96.32
2022-11-17T04:20:02.699Z,96.5
2022-11-17T04:25:02.786Z,96.54
2022-11-17T04:30:02.964Z,96.63
2022-11-17T04:35:02.299Z,96.35
2022-11-17T04:40:03.064Z,96.34
2022-11-17T04:45:02.798Z,96.2
2022-11-17T04:50:02.462Z,96.4
2022-11-17T04:55:04.592Z,96.72
2022-11-17T05:00:03.548Z,96.28
2022-11-17T05:05:02.706Z,96.33
2022-11-17T05:10:02.418Z,96.03
2022-11-17T05:15:03.137Z,96.01
2022-11-17T05:20:03.147Z,95.71
2022-11-17T05:25:02.594Z,95.46
2022-11-17T05:30:02.412Z,95.62
2022-11-17T05:35:03.186Z,95.56
2022-11-17T05:40:03.092Z,95.51
2022-11-17T05:45:02.415Z,95.49
2022-11-17T05:50:02.792Z,95.86
2022-11-17T05:55:04.570Z,95.16
2022-11-17T06:00:02.487Z,95.26
2022-11-17T06:05:02.306Z,95.27
2022-11-17T06:10:03.056Z,95.04
2022-11-17T06:15:02.952Z,95.52
2022-11-17T06:20:03.135Z,95.7
2022-11-17T06:25:02.774Z,95.42
2022-11-17T06:30:02.579Z,95.87
2022-11-17T06:35:02.295Z,95.94
2022-11-17T06:40:03.056Z,95.83
2022-11-17T06:45:02.841Z,95.82
2022-11-17T06:50:02.565Z,95.28
2022-11-17T06:55:03.701Z,94.51
2022-11-17T07:00:03.408Z,94.27
2022-11-17T07:05:02.940Z,93.79
2022-11-17T07:10:02.874Z,93.06
2022-11-17T07:15:02.641Z,92.68
2022-11-17T07:20:02.688Z,92.3
2022-11-17T07:25:03.056Z,91.87
2022-11-17T07:30:02.790Z,91.77
2022-11-17T07:35:02.757Z,91.93
2022-11-17T07:40:03.256Z,91.87
2022-11-17T07:45:02.770Z,91.78
2022-11-17T07:50:02.434Z,91.38
2022-11-17T07:55:04.578Z,91.49
2022-11-17T08:00:03.064Z,90.86
2022-11-17T08:05:02.883Z,91.38
2022-11-17T08:10:03.231Z,91.34
2022-11-17T08:15:02.927Z,91.08
2022-11-17T08:20:02.661Z,91.08
2022-11-17T08:25:02.638Z,90.38
2022-11-17T08:30:02.835Z,90.11
2022-11-17T08:35:02.442Z,89.96
2022-11-17T08:40:03.605Z,90.04
2022-11-17T08:45:02.751Z,89.97
2022-11-17T08:50:02.463Z,89.44
2022-11-17T08:55:04.043Z,89.45
2022-11-17T09:00:03.042Z,89.65
2022-11-17T09:05:02.758Z,89.24
2022-11-17T09:10:02.449Z,88.76
2022-11-17T09:15:03.269Z,89.04
2022-11-17T09:20:03.382Z,88.1
2022-11-17T09:25:02.657Z,88.76
2022-11-17T09:30:02.576Z,88.83
2022-11-17T09:35:03.213Z,88.18
2022-11-17T09:40:03.505Z,88.29
2022-11-17T09:45:02.285Z,87.94
2022-11-17T09:50:03.061Z,88.15
2022-11-17T09:55:04.108Z,88.42
2022-11-17T10:00:02.670Z,87.43
2022-11-17T10:05:03.028Z,86.83
2022-11-17T10:10:02.575Z,86.91
2022-11-17T10:15:02.440Z,87.47
2022-11-17T10:20:03.181Z,86.9
2022-11-17T10:25:03.413Z,87.23
2022-11-17T10:30:02.819Z,86.93
2022-11-17T10:35:02.612Z,86.8
2022-11-17T10:40:02.376Z,86.37
2022-11-17T10:45:03.118Z,86.33
2022-11-17T10:50:03.199Z,86.52
2022-11-17T10:55:04.008Z,86.9
2022-11-17T11:00:02.333Z,86.7
2022-11-17T11:05:03.026Z,86.96
2022-11-17T11:10:02.824Z,87.99
2022-11-17T11:15:03.518Z,88.48
2022-11-17T11:20:02.810Z,90.11
2022-11-17T11:25:02.520Z,91.73
2022-11-17T11:30:03.138Z,91.89
2022-11-17T11:35:02.847Z,91.59
2022-11-17T11:40:02.970Z,93.04
2022-11-17T11:45:02.329Z,93.94
2022-11-17T11:50:02.916Z,92.79
2022-11-17T11:55:04.030Z,92.59
2022-11-17T12:00:04.270Z,92.91
2022-11-17T12:05:03.412Z,93.32
2022-11-17T12:10:02.780Z,93.2
2022-11-17T12:15:02.563Z,92.87
2022-11-17T12:20:06.169Z,92.83
2022-11-17T12:25:02.794Z,93.16
2022-11-17T12:30:03.069Z,93.03
2022-11-17T12:35:02.316Z,93.54
2022-11-17T12:40:03.093Z,93.41
2022-11-17T12:45:03.217Z,93.99
2022-11-17T12:50:02.819Z,93.54
2022-11-17T12:55:04.115Z,93.81
2022-11-17T13:00:02.285Z,93.99
2022-11-17T13:05:03.018Z,94.46
2022-11-17T13:10:02.757Z,94.73
2022-11-17T13:15:02.583Z,94.91
2022-11-17T13:20:02.709Z,94.6
2022-11-17T13:25:03.199Z,95.13
2022-11-17T13:30:03.690Z,95.12
2022-11-17T13:35:02.504Z,95.62
2022-11-17T13:40:02.283Z,95.18
2022-11-17T13:45:03.120Z,95.43
2022-11-17T13:50:02.741Z,95.48
2022-11-17T13:55:03.752Z,95.45
2022-11-17T14:00:02.278Z,95.48
2022-11-17T14:05:02.311Z,95.32
2022-11-17T14:10:04.280Z,95.3
2022-11-17T14:15:02.505Z,95.55
2022-11-17T14:20:03.831Z,95.79
2022-11-17T14:25:02.964Z,95.84
2022-11-17T14:30:03.536Z,95.71
2022-11-17T14:35:02.746Z,96.35
2022-11-17T14:40:02.565Z,96.72
2022-11-17T14:45:02.466Z,96.43
2022-11-17T14:50:02.263Z,96.13
2022-11-17T14:55:04.366Z,96.21
2022-11-17T15:00:02.818Z,96.59
2022-11-17T15:05:02.548Z,96.45
2022-11-17T15:10:02.296Z,96.48
2022-11-17T15:15:03.085Z,96.46
2022-11-17T15:20:03.596Z,96.2
2022-11-17T15:25:02.970Z,96.35
2022-11-17T15:30:02.661Z,96.13
2022-11-17T15:35:02.349Z,96.18
2022-11-17T15:40:02.281Z,95.65
2022-11-17T15:45:03.428Z,95.41
2022-11-17T15:50:02.654Z,95.97
2022-11-17T15:55:03.798Z,96.32
2022-11-17T16:00:03.133Z,95.86
2022-11-17T16:05:03.307Z,95.45
2022-11-17T16:10:02.634Z,95.83
2022-11-17T16:15:02.414Z,95.21
2022-11-17T16:20:03.191Z,95.54
2022-11-17T16:25:02.225Z,95.7
2022-11-17T16:30:03.421Z,96.09
2022-11-17T16:35:02.709Z,96.54
2022-11-17T16:40:02.488Z,96.36
2022-11-17T16:45:03.213Z,96.15
2022-11-17T16:50:02.972Z,96.49
2022-11-17T16:55:05.983Z,96.42
2022-11-17T17:00:02.453Z,96.56
2022-11-17T17:05:03.312Z,96.03
2022-11-17T17:10:03.080Z,96.6
2022-11-17T17:15:02.800Z,96.49
2022-11-17T17:20:02.969Z,96.62
2022-11-17T17:25:02.238Z,96.51
2022-11-17T17:30:03.174Z,96.89
2022-11-17T17:35:03.021Z,97.04
2022-11-17T17:40:02.784Z,97.31
2022-11-17T17:45:03.042Z,97.69
2022-11-17T17:50:02.302Z,97.93
2022-11-17T17:55:04.318Z,97.46
2022-11-17T18:00:02.880Z,97.74
2022-11-17T18:05:02.621Z,97.74
2022-11-17T18:10:02.807Z,97.57
2022-11-17T18:15:03.030Z,97.33
2022-11-17T18:20:02.711Z,96.88
2022-11-17T18:25:08.051Z,97.06
2022-11-17T18:30:02.873Z,97.16
2022-11-17T18:35:02.916Z,97.11
2022-11-17T18:40:02.244Z,96.47
2022-11-17T18:45:03.070Z,96.42
2022-11-17T18:50:03.174Z,96.35
2022-11-17T18:55:03.933Z,96.19
2022-11-17T19:00:03.231Z,95.64
2022-11-17T19:05:03.321Z,95.75
2022-11-17T19:10:02.632Z,95.9
2022-11-17T19:15:02.377Z,95.75
2022-11-17T19:20:03.060Z,95.83
2022-11-17T19:25:02.906Z,95.66
2022-11-17T19:30:03.164Z,95.57
2022-11-17T19:35:11.951Z,95.44
2022-11-17T19:40:02.369Z,95.52
2022-11-17T19:45:03.118Z,95.26
2022-11-17T19:50:02.735Z,95.2
2022-11-17T19:55:03.852Z,95.41
2022-11-17T20:00:03.196Z,95.25
2022-11-17T20:05:05.353Z,95.65
2022-11-17T20:10:02.654Z,95.45
2022-11-17T20:15:02.828Z,95.43
2022-11-17T20:20:03.121Z,95.79
2022-11-17T20:25:03.760Z,96.36
2022-11-17T20:30:02.747Z,96.4
2022-11-17T20:35:02.382Z,97.37
2022-11-17T20:40:03.102Z,97.57
2022-11-17T20:45:03.502Z,98.16
2022-11-17T20:50:02.569Z,98.07
2022-11-17T20:55:03.678Z,98.21
2022-11-17T21:00:02.983Z,98.04
2022-11-17T21:05:02.422Z,98.12
2022-11-17T21:10:03.531Z,98.19
2022-11-17T21:15:02.733Z,97.67
2022-11-17T21:20:02.404Z,97.51
2022-11-17T21:25:03.033Z,97.41
2022-11-17T21:30:02.803Z,97.42
2022-11-17T21:35:02.865Z,97.61
2022-11-17T21:40:03.176Z,97.34
2022-11-17T21:45:03.332Z,97.61
2022-11-17T21:50:02.938Z,97.37
2022-11-17T21:55:03.714Z,96.95
2022-11-17T22:00:03.398Z,97.22
2022-11-17T22:05:02.501Z,97.34
2022-11-17T22:10:02.259Z,97.49
2022-11-17T22:15:06.089Z,97.18
2022-11-17T22:20:02.521Z,97.02
2022-11-17T22:25:17.069Z,97.14
2022-11-17T22:30:02.980Z,97.2
2022-11-17T22:35:02.502Z,97.01
2022-11-17T22:40:02.286Z,96.91
2022-11-17T22:45:03.040Z,96.79
2022-11-17T22:50:02.722Z,96.93
2022-11-17T22:55:03.857Z,96.84
2022-11-17T23:00:03.395Z,96.95
2022-11-17T23:05:02.713Z,96.87
2022-11-17T23:10:02.588Z,96.88
2022-11-17T23:15:02.759Z,96.75
2022-11-17T23:20:03.187Z,96.68
2022-11-17T23:25:03.339Z,96.87
2022-11-17T23:30:02.371Z,96.98
2022-11-17T23:35:03.079Z,96.64
2022-11-17T23:40:02.742Z,96.83
2022-11-17T23:45:02.803Z,96.71
2022-11-17T23:50:02.758Z,96.63
2022-11-17T23:55:04.407Z,96.43
